METAR Data
IDs: Format: Raw Decoded Include TAF

Data at: 2348 UTC 25 Oct 2021

PANA 251556Z AUTO 35007KT 10SM OVC029 M04/M05 A2939 RMK AO2 SLP952 T10441050 FZRANO TSNO
PANA 250056Z AUTO 28006KT 10SM FEW026 01/M04 A2950 RMK AO2 SLP989 T00111044 FZRANO TSNO
PANA 242056Z AUTO 28006KT 10SM CLR 01/M01 A2958 RMK AO2 SLP015 T00061011 58005 FZRANO TSNO
PANA 241956Z AUTO 26004KT 10SM CLR M02/M02 A2959 RMK AO2 SLP018 T10171022 FZRANO TSNO
PANA 241756Z AUTO 30003KT 10SM CLR M06/M06 A2959 RMK AO2 SLP020 T10561061 11022 21056 58008 FZRANO TSNO
PANA 241656Z AUTO 28003KT 10SM CLR M06/M06 A2960 RMK AO2 SLP023 T10561061 FZRANO TSNO
PANA 241556Z AUTO 28004KT 10SM CLR M05/M06 A2961 RMK AO2 SLP027 T10501061 FZRANO TSNO
PANA 241356Z AUTO 28005KT 10SM CLR M04/M05 A2961 RMK AO2 SLP028 T10391050 FZRANO TSNO